sensor_id;sensor_type;location;lat;lon;timestamp;temperature;humidity
21612;DHT22;47005;52.292;13.452;2023-03-14T00:01:24;13.20;99.90
21612;DHT22;47005;52.292;13.452;2023-03-14T00:03:50;13.20;99.90
21612;DHT22;47005;52.292;13.452;2023-03-14T00:06:16;13.20;99.90
21612;DHT22;47005;52.292;13.452;2023-03-14T00:08:43;13.10;99.90
21612;DHT22;47005;52.292;13.452;2023-03-14T00:11:16;13.20;99.90
21612;DHT22;47005;52.292;13.452;2023-03-14T00:13:42;13.10;99.90
21612;DHT22;47005;52.292;13.452;2023-03-14T00:16:10;13.10;99.90
21612;DHT22;47005;52.292;13.452;2023-03-14T00:18:36;13.10;99.90
21612;DHT22;47005;52.292;13.452;2023-03-14T00:21:04;13.10;99.90
21612;DHT22;47005;52.292;13.452;2023-03-14T00:23:32;13.00;99.90
21612;DHT22;47005;52.292;13.452;2023-03-14T00:26:00;13.00;99.90
21612;DHT22;47005;52.292;13.452;2023-03-14T00:28:26;13.00;99.90
21612;DHT22;47005;52.292;13.452;2023-03-14T00:30:52;13.00;99.90
21612;DHT22;47005;52.292;13.452;2023-03-14T00:33:18;13.00;99.90
21612;DHT22;47005;52.292;13.452;2023-03-14T00:35:43;12.90;99.90
21612;DHT22;47005;52.292;13.452;2023-03-14T00:38:09;13.00;99.90
21612;DHT22;47005;52.292;13.452;2023-03-14T00:40:39;12.90;99.90
21612;DHT22;47005;52.292;13.452;2023-03-14T00:43:05;12.90;99.90
21612;DHT22;47005;52.292;13.452;2023-03-14T00:45:31;12.90;99.90
21612;DHT22;47005;52.292;13.452;2023-03-14T00:47:56;12.80;99.90
21612;DHT22;47005;52.292;13.452;2023-03-14T00:50:22;12.80;99.90
21612;DHT22;47005;52.292;13.452;2023-03-14T00:52:48;12.80;99.90
21612;DHT22;47005;52.292;13.452;2023-03-14T00:55:14;12.80;99.90
21612;DHT22;47005;52.292;13.452;2023-03-14T00:57:42;12.80;99.90
21612;DHT22;47005;52.292;13.452;2023-03-14T01:00:09;12.80;99.90
21612;DHT22;47005;52.292;13.452;2023-03-14T01:02:37;12.80;99.90
21612;DHT22;47005;52.292;13.452;2023-03-14T01:05:03;12.70;99.90
21612;DHT22;47005;52.292;13.452;2023-03-14T01:07:29;12.70;99.90
21612;DHT22;47005;52.292;13.452;2023-03-14T01:09:55;12.70;99.90
21612;DHT22;47005;52.292;13.452;2023-03-14T01:12:20;12.70;99.90
21612;DHT22;47005;52.292;13.452;2023-03-14T01:14:46;12.70;99.90
21612;DHT22;47005;52.292;13.452;2023-03-14T01:17:12;12.70;99.90
21612;DHT22;47005;52.292;13.452;2023-03-14T01:19:37;12.60;99.90
21612;DHT22;47005;52.292;13.452;2023-03-14T01:22:03;12.60;99.90
21612;DHT22;47005;52.292;13.452;2023-03-14T01:24:29;12.60;99.90
21612;DHT22;47005;52.292;13.452;2023-03-14T01:26:55;12.60;99.90
21612;DHT22;47005;52.292;13.452;2023-03-14T01:29:20;12.60;99.90
21612;DHT22;47005;52.292;13.452;2023-03-14T01:31:46;12.60;99.90
21612;DHT22;47005;52.292;13.452;2023-03-14T01:34:12;12.60;99.90
21612;DHT22;47005;52.292;13.452;2023-03-14T01:36:37;12.50;99.90
21612;DHT22;47005;52.292;13.452;2023-03-14T01:39:03;12.50;99.90
21612;DHT22;47005;52.292;13.452;2023-03-14T01:41:31;12.50;99.90
21612;DHT22;47005;52.292;13.452;2023-03-14T01:43:57;12.50;99.90
21612;DHT22;47005;52.292;13.452;2023-03-14T01:46:40;12.50;99.90
21612;DHT22;47005;52.292;13.452;2023-03-14T01:49:29;12.50;99.90
21612;DHT22;47005;52.292;13.452;2023-03-14T01:56:54;12.40;99.90
21612;DHT22;47005;52.292;13.452;2023-03-14T01:59:21;12.40;99.90
21612;DHT22;47005;52.292;13.452;2023-03-14T02:01:49;12.40;99.90
21612;DHT22;47005;52.292;13.452;2023-03-14T02:04:17;12.40;99.90
21612;DHT22;47005;52.292;13.452;2023-03-14T02:07:07;12.40;99.90
21612;DHT22;47005;52.292;13.452;2023-03-14T02:09:34;12.40;99.90
21612;DHT22;47005;52.292;13.452;2023-03-14T02:12:00;12.40;99.90
21612;DHT22;47005;52.292;13.452;2023-03-14T02:14:35;12.40;99.90
21612;DHT22;47005;52.292;13.452;2023-03-14T02:17:03;12.40;99.90
21612;DHT22;47005;52.292;13.452;2023-03-14T02:19:44;12.40;99.90
21612;DHT22;47005;52.292;13.452;2023-03-14T02:22:15;12.40;99.90
21612;DHT22;47005;52.292;13.452;2023-03-14T02:27:39;12.40;99.90
21612;DHT22;47005;52.292;13.452;2023-03-14T02:30:17;12.40;99.90
21612;DHT22;47005;52.292;13.452;2023-03-14T02:32:47;12.40;99.90
21612;DHT22;47005;52.292;13.452;2023-03-14T02:35:18;12.40;99.90
21612;DHT22;47005;52.292;13.452;2023-03-14T02:37:59;12.40;99.90
21612;DHT22;47005;52.292;13.452;2023-03-14T02:40:26;12.40;99.90
21612;DHT22;47005;52.292;13.452;2023-03-14T02:42:51;12.30;99.90
21612;DHT22;47005;52.292;13.452;2023-03-14T02:47:46;12.30;99.90
21612;DHT22;47005;52.292;13.452;2023-03-14T02:50:17;12.40;99.90
21612;DHT22;47005;52.292;13.452;2023-03-14T02:52:44;12.40;99.90
21612;DHT22;47005;52.292;13.452;2023-03-14T02:55:10;12.30;99.90
21612;DHT22;47005;52.292;13.452;2023-03-14T02:57:35;12.40;99.90
21612;DHT22;47005;52.292;13.452;2023-03-14T03:00:02;12.30;99.90
21612;DHT22;47005;52.292;13.452;2023-03-14T03:02:30;12.30;99.90
21612;DHT22;47005;52.292;13.452;2023-03-14T03:04:56;12.30;99.90
21612;DHT22;47005;52.292;13.452;2023-03-14T03:07:22;12.30;99.90
21612;DHT22;47005;52.292;13.452;2023-03-14T03:09:48;12.30;99.90
21612;DHT22;47005;52.292;13.452;2023-03-14T03:12:13;12.30;99.90
21612;DHT22;47005;52.292;13.452;2023-03-14T03:14:39;12.30;99.90
21612;DHT22;47005;52.292;13.452;2023-03-14T03:17:05;12.30;99.90
21612;DHT22;47005;52.292;13.452;2023-03-14T03:19:31;12.30;99.90
21612;DHT22;47005;52.292;13.452;2023-03-14T03:21:57;12.30;99.90
21612;DHT22;47005;52.292;13.452;2023-03-14T03:24:24;12.30;99.90
21612;DHT22;47005;52.292;13.452;2023-03-14T03:26:49;12.30;99.90
21612;DHT22;47005;52.292;13.452;2023-03-14T03:29:15;12.30;99.90
21612;DHT22;47005;52.292;13.452;2023-03-14T03:31:41;12.30;99.90
21612;DHT22;47005;52.292;13.452;2023-03-14T03:34:07;12.30;99.90
21612;DHT22;47005;52.292;13.452;2023-03-14T03:36:32;12.30;99.90
21612;DHT22;47005;52.292;13.452;2023-03-14T03:38:58;12.30;99.90
21612;DHT22;47005;52.292;13.452;2023-03-14T03:41:24;12.20;99.90
21612;DHT22;47005;52.292;13.452;2023-03-14T03:43:50;12.20;99.90
21612;DHT22;47005;52.292;13.452;2023-03-14T03:46:15;12.20;99.90
21612;DHT22;47005;52.292;13.452;2023-03-14T03:48:41;12.20;99.90
21612;DHT22;47005;52.292;13.452;2023-03-14T03:51:08;12.20;99.90
21612;DHT22;47005;52.292;13.452;2023-03-14T03:53:36;12.30;99.90
21612;DHT22;47005;52.292;13.452;2023-03-14T03:56:02;12.20;99.90
21612;DHT22;47005;52.292;13.452;2023-03-14T03:58:28;12.20;99.90
21612;DHT22;47005;52.292;13.452;2023-03-14T04:00:54;12.20;99.90
21612;DHT22;47005;52.292;13.452;2023-03-14T04:03:19;12.20;99.90
21612;DHT22;47005;52.292;13.452;2023-03-14T04:05:45;12.20;99.90
21612;DHT22;47005;52.292;13.452;2023-03-14T04:08:11;12.20;99.90
21612;DHT22;47005;52.292;13.452;2023-03-14T04:10:37;12.20;99.90
21612;DHT22;47005;52.292;13.452;2023-03-14T04:13:03;12.20;99.90
21612;DHT22;47005;52.292;13.452;2023-03-14T04:15:28;12.20;99.90
21612;DHT22;47005;52.292;13.452;2023-03-14T04:17:58;12.20;99.90
21612;DHT22;47005;52.292;13.452;2023-03-14T04:20:24;12.20;99.90
21612;DHT22;47005;52.292;13.452;2023-03-14T04:22:49;12.20;99.90
21612;DHT22;47005;52.292;13.452;2023-03-14T04:25:15;12.20;99.90
21612;DHT22;47005;52.292;13.452;2023-03-14T04:27:42;12.20;99.90
21612;DHT22;47005;52.292;13.452;2023-03-14T04:30:08;12.20;99.90
21612;DHT22;47005;52.292;13.452;2023-03-14T04:32:34;12.10;99.90
21612;DHT22;47005;52.292;13.452;2023-03-14T04:35:00;12.20;99.90
21612;DHT22;47005;52.292;13.452;2023-03-14T04:37:25;12.10;99.90
21612;DHT22;47005;52.292;13.452;2023-03-14T04:39:51;12.10;99.90
21612;DHT22;47005;52.292;13.452;2023-03-14T04:42:17;12.10;99.90
21612;DHT22;47005;52.292;13.452;2023-03-14T04:44:42;12.10;99.90
21612;DHT22;47005;52.292;13.452;2023-03-14T04:47:08;12.10;99.90
21612;DHT22;47005;52.292;13.452;2023-03-14T04:49:34;12.10;99.90
21612;DHT22;47005;52.292;13.452;2023-03-14T04:52:00;12.10;99.90
21612;DHT22;47005;52.292;13.452;2023-03-14T04:54:25;12.10;99.90
21612;DHT22;47005;52.292;13.452;2023-03-14T04:56:51;12.10;99.90
21612;DHT22;47005;52.292;13.452;2023-03-14T04:59:18;12.10;99.90
21612;DHT22;47005;52.292;13.452;2023-03-14T05:01:43;12.10;99.90
21612;DHT22;47005;52.292;13.452;2023-03-14T05:04:09;12.10;99.90
21612;DHT22;47005;52.292;13.452;2023-03-14T05:06:35;12.10;99.90
21612;DHT22;47005;52.292;13.452;2023-03-14T05:09:00;12.10;99.90
21612;DHT22;47005;52.292;13.452;2023-03-14T05:11:26;12.10;99.90
21612;DHT22;47005;52.292;13.452;2023-03-14T05:13:51;12.10;99.90
21612;DHT22;47005;52.292;13.452;2023-03-14T05:16:17;12.10;99.90
21612;DHT22;47005;52.292;13.452;2023-03-14T05:18:43;12.00;99.90
21612;DHT22;47005;52.292;13.452;2023-03-14T05:21:08;12.00;99.90
21612;DHT22;47005;52.292;13.452;2023-03-14T05:23:34;12.00;99.90
21612;DHT22;47005;52.292;13.452;2023-03-14T05:26:00;12.00;99.90
21612;DHT22;47005;52.292;13.452;2023-03-14T05:28:25;12.00;99.90
21612;DHT22;47005;52.292;13.452;2023-03-14T05:30:51;12.00;99.90
21612;DHT22;47005;52.292;13.452;2023-03-14T05:33:17;12.00;99.90
21612;DHT22;47005;52.292;13.452;2023-03-14T05:35:42;12.00;99.90
21612;DHT22;47005;52.292;13.452;2023-03-14T05:38:08;12.00;99.90
21612;DHT22;47005;52.292;13.452;2023-03-14T05:40:34;12.00;99.90
21612;DHT22;47005;52.292;13.452;2023-03-14T05:43:00;12.00;99.90
21612;DHT22;47005;52.292;13.452;2023-03-14T05:45:26;12.00;99.90
21612;DHT22;47005;52.292;13.452;2023-03-14T05:47:51;12.00;99.90
21612;DHT22;47005;52.292;13.452;2023-03-14T05:50:17;12.00;99.90
21612;DHT22;47005;52.292;13.452;2023-03-14T05:52:43;12.00;99.90
21612;DHT22;47005;52.292;13.452;2023-03-14T05:55:09;12.00;99.90
21612;DHT22;47005;52.292;13.452;2023-03-14T05:57:34;12.00;99.90
21612;DHT22;47005;52.292;13.452;2023-03-14T06:00:00;12.00;99.90
21612;DHT22;47005;52.292;13.452;2023-03-14T06:02:26;12.00;99.90
21612;DHT22;47005;52.292;13.452;2023-03-14T06:04:52;12.00;99.90
21612;DHT22;47005;52.292;13.452;2023-03-14T06:07:18;12.00;99.90
21612;DHT22;47005;52.292;13.452;2023-03-14T06:09:43;12.00;99.90
21612;DHT22;47005;52.292;13.452;2023-03-14T06:12:09;12.00;99.90
21612;DHT22;47005;52.292;13.452;2023-03-14T06:14:35;12.00;99.90
21612;DHT22;47005;52.292;13.452;2023-03-14T06:17:00;11.90;99.90
21612;DHT22;47005;52.292;13.452;2023-03-14T06:19:26;12.00;99.90
21612;DHT22;47005;52.292;13.452;2023-03-14T06:21:52;11.90;99.90
21612;DHT22;47005;52.292;13.452;2023-03-14T06:24:18;12.00;99.90
21612;DHT22;47005;52.292;13.452;2023-03-14T06:26:44;12.00;99.90
21612;DHT22;47005;52.292;13.452;2023-03-14T06:29:09;12.00;99.90
21612;DHT22;47005;52.292;13.452;2023-03-14T06:31:35;12.00;99.90
21612;DHT22;47005;52.292;13.452;2023-03-14T06:34:01;12.00;99.90
21612;DHT22;47005;52.292;13.452;2023-03-14T06:36:27;12.00;99.90
21612;DHT22;47005;52.292;13.452;2023-03-14T06:38:52;12.00;99.90
21612;DHT22;47005;52.292;13.452;2023-03-14T06:41:18;12.00;99.90
21612;DHT22;47005;52.292;13.452;2023-03-14T06:43:44;12.00;99.90
21612;DHT22;47005;52.292;13.452;2023-03-14T06:46:10;12.00;99.90
21612;DHT22;47005;52.292;13.452;2023-03-14T06:48:35;12.00;99.90
21612;DHT22;47005;52.292;13.452;2023-03-14T06:51:01;12.00;99.90
21612;DHT22;47005;52.292;13.452;2023-03-14T06:53:27;12.00;99.90
21612;DHT22;47005;52.292;13.452;2023-03-14T06:55:53;12.00;99.90
21612;DHT22;47005;52.292;13.452;2023-03-14T06:58:19;12.00;99.90
21612;DHT22;47005;52.292;13.452;2023-03-14T07:00:45;12.00;99.90
21612;DHT22;47005;52.292;13.452;2023-03-14T07:03:12;12.10;99.90
21612;DHT22;47005;52.292;13.452;2023-03-14T07:05:38;12.10;99.90
21612;DHT22;47005;52.292;13.452;2023-03-14T07:08:06;12.10;99.90
21612;DHT22;47005;52.292;13.452;2023-03-14T07:10:32;12.10;99.90
21612;DHT22;47005;52.292;13.452;2023-03-14T07:12:57;12.10;99.90
21612;DHT22;47005;52.292;13.452;2023-03-14T07:15:23;12.10;99.90
21612;DHT22;47005;52.292;13.452;2023-03-14T07:17:48;12.10;99.90
21612;DHT22;47005;52.292;13.452;2023-03-14T07:20:14;12.10;99.90
21612;DHT22;47005;52.292;13.452;2023-03-14T07:22:40;12.20;99.90
21612;DHT22;47005;52.292;13.452;2023-03-14T07:25:09;12.20;99.90
21612;DHT22;47005;52.292;13.452;2023-03-14T07:27:37;12.20;99.90
21612;DHT22;47005;52.292;13.452;2023-03-14T07:30:04;12.20;99.90
21612;DHT22;47005;52.292;13.452;2023-03-14T07:32:30;12.20;99.90
21612;DHT22;47005;52.292;13.452;2023-03-14T07:34:55;12.20;99.90
21612;DHT22;47005;52.292;13.452;2023-03-14T07:37:21;12.20;99.90
21612;DHT22;47005;52.292;13.452;2023-03-14T07:39:47;12.20;99.90
21612;DHT22;47005;52.292;13.452;2023-03-14T07:42:12;12.20;99.90
21612;DHT22;47005;52.292;13.452;2023-03-14T07:44:38;12.20;99.90
21612;DHT22;47005;52.292;13.452;2023-03-14T07:47:04;12.20;99.90
21612;DHT22;47005;52.292;13.452;2023-03-14T07:49:30;12.20;99.90
21612;DHT22;47005;52.292;13.452;2023-03-14T07:51:55;12.20;99.90
21612;DHT22;47005;52.292;13.452;2023-03-14T07:54:21;12.20;99.90
21612;DHT22;47005;52.292;13.452;2023-03-14T07:56:47;12.20;99.90
21612;DHT22;47005;52.292;13.452;2023-03-14T07:59:12;12.20;99.90
21612;DHT22;47005;52.292;13.452;2023-03-14T08:01:38;12.20;99.90
21612;DHT22;47005;52.292;13.452;2023-03-14T08:04:03;12.20;99.90
21612;DHT22;47005;52.292;13.452;2023-03-14T08:06:29;12.20;99.90
21612;DHT22;47005;52.292;13.452;2023-03-14T08:08:55;12.20;99.90
21612;DHT22;47005;52.292;13.452;2023-03-14T08:11:21;12.30;99.90
21612;DHT22;47005;52.292;13.452;2023-03-14T08:13:46;12.30;99.90
21612;DHT22;47005;52.292;13.452;2023-03-14T08:16:16;12.30;99.90
21612;DHT22;47005;52.292;13.452;2023-03-14T08:18:45;12.30;99.90
21612;DHT22;47005;52.292;13.452;2023-03-14T08:21:13;12.40;99.90
21612;DHT22;47005;52.292;13.452;2023-03-14T08:23:39;12.40;99.90
21612;DHT22;47005;52.292;13.452;2023-03-14T08:26:06;12.40;99.90
21612;DHT22;47005;52.292;13.452;2023-03-14T08:28:34;12.50;99.90
21612;DHT22;47005;52.292;13.452;2023-03-14T08:31:00;12.50;99.90
21612;DHT22;47005;52.292;13.452;2023-03-14T08:33:29;12.50;99.90
21612;DHT22;47005;52.292;13.452;2023-03-14T08:35:56;12.50;99.90
21612;DHT22;47005;52.292;13.452;2023-03-14T08:38:22;12.60;99.90
21612;DHT22;47005;52.292;13.452;2023-03-14T08:40:48;12.60;99.90
21612;DHT22;47005;52.292;13.452;2023-03-14T08:43:15;12.60;99.90
21612;DHT22;47005;52.292;13.452;2023-03-14T08:45:41;12.60;99.90
21612;DHT22;47005;52.292;13.452;2023-03-14T08:48:07;12.60;99.90
21612;DHT22;47005;52.292;13.452;2023-03-14T08:50:33;12.70;99.90
21612;DHT22;47005;52.292;13.452;2023-03-14T08:52:59;12.70;99.90
21612;DHT22;47005;52.292;13.452;2023-03-14T08:55:26;12.70;99.90
21612;DHT22;47005;52.292;13.452;2023-03-14T08:57:53;12.70;99.90
21612;DHT22;47005;52.292;13.452;2023-03-14T09:00:19;12.70;99.90
21612;DHT22;47005;52.292;13.452;2023-03-14T09:02:45;12.70;99.90
21612;DHT22;47005;52.292;13.452;2023-03-14T09:05:11;12.80;99.90
21612;DHT22;47005;52.292;13.452;2023-03-14T09:07:38;12.80;99.90
21612;DHT22;47005;52.292;13.452;2023-03-14T09:10:05;12.80;99.90
21612;DHT22;47005;52.292;13.452;2023-03-14T09:12:31;12.80;99.90
21612;DHT22;47005;52.292;13.452;2023-03-14T09:14:56;12.80;99.90
21612;DHT22;47005;52.292;13.452;2023-03-14T09:17:22;12.80;99.90
21612;DHT22;47005;52.292;13.452;2023-03-14T09:19:48;12.80;99.90
21612;DHT22;47005;52.292;13.452;2023-03-14T09:22:13;12.80;99.90
21612;DHT22;47005;52.292;13.452;2023-03-14T09:24:40;12.80;99.90
21612;DHT22;47005;52.292;13.452;2023-03-14T09:27:06;12.80;99.90
21612;DHT22;47005;52.292;13.452;2023-03-14T09:29:33;12.80;99.90
21612;DHT22;47005;52.292;13.452;2023-03-14T09:31:59;12.80;99.90
21612;DHT22;47005;52.292;13.452;2023-03-14T09:34:25;12.80;99.90
21612;DHT22;47005;52.292;13.452;2023-03-14T09:36:51;12.80;99.90
21612;DHT22;47005;52.292;13.452;2023-03-14T09:39:16;12.90;99.90
21612;DHT22;47005;52.292;13.452;2023-03-14T09:41:50;12.90;99.90
21612;DHT22;47005;52.292;13.452;2023-03-14T09:44:25;12.90;99.90
21612;DHT22;47005;52.292;13.452;2023-03-14T09:46:54;12.90;99.90
21612;DHT22;47005;52.292;13.452;2023-03-14T09:49:40;12.90;99.90
21612;DHT22;47005;52.292;13.452;2023-03-14T09:57:18;13.10;99.90
21612;DHT22;47005;52.292;13.452;2023-03-14T09:59:45;13.10;99.90
21612;DHT22;47005;52.292;13.452;2023-03-14T10:02:23;13.20;99.90
21612;DHT22;47005;52.292;13.452;2023-03-14T10:04:51;13.20;99.90
21612;DHT22;47005;52.292;13.452;2023-03-14T10:07:21;13.30;99.90
21612;DHT22;47005;52.292;13.452;2023-03-14T10:09:50;13.30;99.90
21612;DHT22;47005;52.292;13.452;2023-03-14T10:12:17;13.30;99.90
21612;DHT22;47005;52.292;13.452;2023-03-14T10:14:49;13.40;99.90
21612;DHT22;47005;52.292;13.452;2023-03-14T10:17:16;13.40;99.90
21612;DHT22;47005;52.292;13.452;2023-03-14T10:19:59;13.40;99.90
21612;DHT22;47005;52.292;13.452;2023-03-14T10:22:29;13.40;99.90
21612;DHT22;47005;52.292;13.452;2023-03-14T10:25:06;13.40;99.90
21612;DHT22;47005;52.292;13.452;2023-03-14T10:27:49;13.40;99.90
21612;DHT22;47005;52.292;13.452;2023-03-14T10:30:29;13.50;99.90
21612;DHT22;47005;52.292;13.452;2023-03-14T10:32:55;13.50;99.90
21612;DHT22;47005;52.292;13.452;2023-03-14T10:35:22;13.50;99.90
21612;DHT22;47005;52.292;13.452;2023-03-14T10:37:57;13.50;99.90
21612;DHT22;47005;52.292;13.452;2023-03-14T10:40:28;13.60;99.90
21612;DHT22;47005;52.292;13.452;2023-03-14T10:42:55;13.60;99.90
21612;DHT22;47005;52.292;13.452;2023-03-14T10:45:42;13.60;99.90
21612;DHT22;47005;52.292;13.452;2023-03-14T10:48:19;13.70;99.90
21612;DHT22;47005;52.292;13.452;2023-03-14T10:50:56;13.70;99.90
21612;DHT22;47005;52.292;13.452;2023-03-14T10:53:23;13.70;99.90
21612;DHT22;47005;52.292;13.452;2023-03-14T10:55:49;13.70;99.90
21612;DHT22;47005;52.292;13.452;2023-03-14T10:58:22;13.70;99.90
21612;DHT22;47005;52.292;13.452;2023-03-14T11:01:17;13.70;99.90
21612;DHT22;47005;52.292;13.452;2023-03-14T11:03:45;13.70;99.90
21612;DHT22;47005;52.292;13.452;2023-03-14T11:06:56;13.70;99.90
21612;DHT22;47005;52.292;13.452;2023-03-14T11:20:51;13.70;99.90
21612;DHT22;47005;52.292;13.452;2023-03-14T11:26:19;13.70;99.90
21612;DHT22;47005;52.292;13.452;2023-03-14T11:28:49;13.70;99.90
21612;DHT22;47005;52.292;13.452;2023-03-14T11:34:05;13.70;99.90
21612;DHT22;47005;52.292;13.452;2023-03-14T11:36:44;13.70;99.90
21612;DHT22;47005;52.292;13.452;2023-03-14T11:39:15;13.80;99.90
21612;DHT22;47005;52.292;13.452;2023-03-14T11:41:45;13.80;99.90
21612;DHT22;47005;52.292;13.452;2023-03-14T11:44:23;13.80;99.90
21612;DHT22;47005;52.292;13.452;2023-03-14T11:47:13;13.80;99.90
21612;DHT22;47005;52.292;13.452;2023-03-14T11:49:53;13.80;99.90
21612;DHT22;47005;52.292;13.452;2023-03-14T11:55:32;13.90;99.90
21612;DHT22;47005;52.292;13.452;2023-03-14T11:58:01;13.90;99.90
21612;DHT22;47005;52.292;13.452;2023-03-14T12:00:29;13.90;99.90
21612;DHT22;47005;52.292;13.452;2023-03-14T12:08:43;14.00;99.90
21612;DHT22;47005;52.292;13.452;2023-03-14T12:11:18;14.10;99.90
21612;DHT22;47005;52.292;13.452;2023-03-14T12:13:52;14.10;99.90
21612;DHT22;47005;52.292;13.452;2023-03-14T12:18:53;14.20;99.90
21612;DHT22;47005;52.292;13.452;2023-03-14T12:21:19;14.20;99.60
21612;DHT22;47005;52.292;13.452;2023-03-14T12:23:56;14.20;99.50
21612;DHT22;47005;52.292;13.452;2023-03-14T12:26:28;14.20;99.70
21612;DHT22;47005;52.292;13.452;2023-03-14T12:29:16;14.20;99.90
21612;DHT22;47005;52.292;13.452;2023-03-14T12:31:45;14.20;99.60
21612;DHT22;47005;52.292;13.452;2023-03-14T12:42:22;14.30;99.90
21612;DHT22;47005;52.292;13.452;2023-03-14T12:45:35;14.30;99.90
21612;DHT22;47005;52.292;13.452;2023-03-14T12:50:44;14.30;99.90
21612;DHT22;47005;52.292;13.452;2023-03-14T12:56:22;14.40;99.10
21612;DHT22;47005;52.292;13.452;2023-03-14T13:01:55;14.50;99.50
21612;DHT22;47005;52.292;13.452;2023-03-14T13:04:28;14.50;99.00
21612;DHT22;47005;52.292;13.452;2023-03-14T13:06:58;14.60;99.00
21612;DHT22;47005;52.292;13.452;2023-03-14T13:12:11;14.60;98.00
21612;DHT22;47005;52.292;13.452;2023-03-14T13:14:41;14.60;98.30
21612;DHT22;47005;52.292;13.452;2023-03-14T13:17:13;14.60;98.50
21612;DHT22;47005;52.292;13.452;2023-03-14T13:19:39;14.60;98.00
21612;DHT22;47005;52.292;13.452;2023-03-14T13:22:15;14.60;97.90
21612;DHT22;47005;52.292;13.452;2023-03-14T13:24:41;14.60;99.90
21612;DHT22;47005;52.292;13.452;2023-03-14T13:27:18;14.60;99.90
21612;DHT22;47005;52.292;13.452;2023-03-14T13:29:48;14.50;99.90
21612;DHT22;47005;52.292;13.452;2023-03-14T13:32:26;14.40;99.90
21612;DHT22;47005;52.292;13.452;2023-03-14T13:34:56;14.40;99.90
21612;DHT22;47005;52.292;13.452;2023-03-14T13:37:23;14.20;99.90
21612;DHT22;47005;52.292;13.452;2023-03-14T13:39:55;14.20;99.90
21612;DHT22;47005;52.292;13.452;2023-03-14T13:42:24;14.10;99.90
21612;DHT22;47005;52.292;13.452;2023-03-14T13:44:52;14.00;99.90
21612;DHT22;47005;52.292;13.452;2023-03-14T13:47:20;14.00;99.90
21612;DHT22;47005;52.292;13.452;2023-03-14T13:49:47;14.00;99.90
21612;DHT22;47005;52.292;13.452;2023-03-14T13:54:53;14.00;99.90
21612;DHT22;47005;52.292;13.452;2023-03-14T13:57:18;14.00;99.90
21612;DHT22;47005;52.292;13.452;2023-03-14T14:00:02;14.00;99.90
21612;DHT22;47005;52.292;13.452;2023-03-14T14:02:33;14.00;99.90
21612;DHT22;47005;52.292;13.452;2023-03-14T14:04:59;14.10;99.90
21612;DHT22;47005;52.292;13.452;2023-03-14T14:07:25;14.20;99.90
21612;DHT22;47005;52.292;13.452;2023-03-14T14:09:52;14.30;99.90
21612;DHT22;47005;52.292;13.452;2023-03-14T14:12:43;14.40;99.90
21612;DHT22;47005;52.292;13.452;2023-03-14T14:15:15;14.50;99.90
21612;DHT22;47005;52.292;13.452;2023-03-14T14:17:48;14.70;99.90
21612;DHT22;47005;52.292;13.452;2023-03-14T14:20:40;14.80;99.90
21612;DHT22;47005;52.292;13.452;2023-03-14T14:23:10;14.90;99.90
21612;DHT22;47005;52.292;13.452;2023-03-14T14:25:37;15.10;99.90
21612;DHT22;47005;52.292;13.452;2023-03-14T14:28:17;15.30;99.90
21612;DHT22;47005;52.292;13.452;2023-03-14T14:30:43;15.40;99.90
21612;DHT22;47005;52.292;13.452;2023-03-14T14:33:27;15.60;99.90
21612;DHT22;47005;52.292;13.452;2023-03-14T14:35:58;15.80;99.90
21612;DHT22;47005;52.292;13.452;2023-03-14T14:38:25;16.00;99.90
21612;DHT22;47005;52.292;13.452;2023-03-14T14:40:54;16.20;99.90
21612;DHT22;47005;52.292;13.452;2023-03-14T14:43:23;16.30;99.90
21612;DHT22;47005;52.292;13.452;2023-03-14T14:45:52;16.60;99.90
21612;DHT22;47005;52.292;13.452;2023-03-14T14:48:25;16.70;99.10
21612;DHT22;47005;52.292;13.452;2023-03-14T14:56:28;17.20;97.70
21612;DHT22;47005;52.292;13.452;2023-03-14T14:59:00;17.20;98.10
21612;DHT22;47005;52.292;13.452;2023-03-14T15:03:59;17.20;96.80
21612;DHT22;47005;52.292;13.452;2023-03-14T15:06:28;17.10;97.20
21612;DHT22;47005;52.292;13.452;2023-03-14T15:08:54;17.00;97.40
21612;DHT22;47005;52.292;13.452;2023-03-14T15:11:23;16.80;96.80
21612;DHT22;47005;52.292;13.452;2023-03-14T15:13:49;16.60;97.50
21612;DHT22;47005;52.292;13.452;2023-03-14T15:16:21;16.50;97.30
21612;DHT22;47005;52.292;13.452;2023-03-14T15:18:54;16.30;97.40
21612;DHT22;47005;52.292;13.452;2023-03-14T15:21:24;16.10;97.40
21612;DHT22;47005;52.292;13.452;2023-03-14T15:23:50;16.00;97.80
21612;DHT22;47005;52.292;13.452;2023-03-14T15:26:22;15.90;98.10
21612;DHT22;47005;52.292;13.452;2023-03-14T15:28:48;15.70;98.30
21612;DHT22;47005;52.292;13.452;2023-03-14T15:31:15;15.60;98.40
21612;DHT22;47005;52.292;13.452;2023-03-14T15:33:43;15.50;97.90
21612;DHT22;47005;52.292;13.452;2023-03-14T15:36:27;15.40;99.90
21612;DHT22;47005;52.292;13.452;2023-03-14T15:38:54;14.90;99.90
21612;DHT22;47005;52.292;13.452;2023-03-14T15:41:21;14.40;99.90
21612;DHT22;47005;52.292;13.452;2023-03-14T15:43:47;13.90;99.90
21612;DHT22;47005;52.292;13.452;2023-03-14T15:46:13;13.40;99.90
21612;DHT22;47005;52.292;13.452;2023-03-14T15:48:40;12.90;99.90
21612;DHT22;47005;52.292;13.452;2023-03-14T15:51:06;12.60;99.90
21612;DHT22;47005;52.292;13.452;2023-03-14T15:53:32;12.20;99.90
21612;DHT22;47005;52.292;13.452;2023-03-14T15:55:58;11.90;99.90
21612;DHT22;47005;52.292;13.452;2023-03-14T15:58:24;11.60;99.90
21612;DHT22;47005;52.292;13.452;2023-03-14T16:00:49;11.40;99.90
21612;DHT22;47005;52.292;13.452;2023-03-14T16:03:15;11.30;99.90
21612;DHT22;47005;52.292;13.452;2023-03-14T16:05:41;11.00;99.90
21612;DHT22;47005;52.292;13.452;2023-03-14T16:08:07;10.90;99.90
21612;DHT22;47005;52.292;13.452;2023-03-14T16:10:33;10.80;99.90
21612;DHT22;47005;52.292;13.452;2023-03-14T16:12:59;10.80;99.90
21612;DHT22;47005;52.292;13.452;2023-03-14T16:15:24;10.60;99.90
21612;DHT22;47005;52.292;13.452;2023-03-14T16:17:54;10.40;99.90
21612;DHT22;47005;52.292;13.452;2023-03-14T16:20:20;10.30;99.90
21612;DHT22;47005;52.292;13.452;2023-03-14T16:22:46;10.20;99.90
21612;DHT22;47005;52.292;13.452;2023-03-14T16:25:12;9.80;99.90
21612;DHT22;47005;52.292;13.452;2023-03-14T16:27:38;9.60;99.90
21612;DHT22;47005;52.292;13.452;2023-03-14T16:30:04;9.40;99.90
21612;DHT22;47005;52.292;13.452;2023-03-14T16:32:30;9.20;99.90
21612;DHT22;47005;52.292;13.452;2023-03-14T16:34:56;9.20;99.90
21612;DHT22;47005;52.292;13.452;2023-03-14T16:37:25;8.90;99.90
21612;DHT22;47005;52.292;13.452;2023-03-14T16:39:52;8.80;99.90